createdAt,value
2017-05-29T00:01:47.478Z,18.90
2017-05-29T00:04:15.719Z,18.70
2017-05-29T00:06:44.022Z,18.70
2017-05-29T00:09:12.262Z,18.60
2017-05-29T00:11:40.524Z,18.60
2017-05-29T00:14:08.788Z,18.50
2017-05-29T00:16:37.029Z,18.60
2017-05-29T00:19:05.291Z,18.70
2017-05-29T00:21:33.540Z,18.70
2017-05-29T00:24:01.787Z,18.60
2017-05-29T00:26:30.057Z,18.60
2017-05-29T00:28:58.301Z,18.50
2017-05-29T00:31:26.544Z,18.40
2017-05-29T00:33:54.805Z,18.40
2017-05-29T00:36:23.109Z,18.40
2017-05-29T00:38:51.373Z,18.40
2017-05-29T00:41:19.632Z,18.40
2017-05-29T00:43:47.904Z,18.30
2017-05-29T00:46:16.148Z,18.30
2017-05-29T00:48:44.418Z,18.20
2017-05-29T00:51:12.664Z,18.20
2017-05-29T00:53:40.905Z,18.10
2017-05-29T00:56:09.167Z,18.10
2017-05-29T00:58:37.429Z,18.10
2017-05-29T01:01:05.680Z,18.10
2017-05-29T01:03:33.919Z,18.00
2017-05-29T01:06:02.185Z,18.00
2017-05-29T01:08:30.436Z,18.00
2017-05-29T01:10:58.695Z,18.10
2017-05-29T01:13:26.949Z,18.10
2017-05-29T01:15:55.197Z,18.10
2017-05-29T01:18:23.459Z,18.00
2017-05-29T01:20:51.704Z,17.90
2017-05-29T01:23:19.981Z,17.80
2017-05-29T01:25:48.253Z,17.80
2017-05-29T01:28:16.492Z,17.70
2017-05-29T01:30:44.738Z,17.70
2017-05-29T01:33:13.006Z,17.70
2017-05-29T01:35:41.244Z,17.70
2017-05-29T01:38:09.520Z,17.70
2017-05-29T01:40:37.787Z,17.70
2017-05-29T01:43:06.052Z,17.60
2017-05-29T01:45:34.297Z,17.50
2017-05-29T01:48:02.540Z,17.50
2017-05-29T01:50:30.818Z,17.40
2017-05-29T01:52:59.060Z,17.50
2017-05-29T01:55:27.325Z,17.50
2017-05-29T01:57:55.573Z,17.40
2017-05-29T02:00:23.840Z,17.40
2017-05-29T02:02:52.081Z,17.40
2017-05-29T02:05:20.327Z,17.40
2017-05-29T02:07:48.600Z,17.40
2017-05-29T02:10:16.859Z,17.40
2017-05-29T02:12:45.103Z,17.30
2017-05-29T02:15:13.365Z,17.30
2017-05-29T02:17:41.606Z,17.30
2017-05-29T02:20:09.872Z,17.30
2017-05-29T02:22:38.128Z,17.30
2017-05-29T02:25:06.385Z,17.20
2017-05-29T02:27:34.632Z,17.20
2017-05-29T02:30:02.894Z,17.10
2017-05-29T02:32:31.132Z,17.10
2017-05-29T02:34:59.380Z,17.10
2017-05-29T02:37:27.637Z,17.10
2017-05-29T02:39:55.885Z,17.10
2017-05-29T02:42:24.156Z,17.10
2017-05-29T02:44:52.405Z,17.00
2017-05-29T02:47:20.653Z,16.90
2017-05-29T02:49:48.930Z,16.90
2017-05-29T02:52:17.186Z,16.90
2017-05-29T02:54:45.433Z,16.90
2017-05-29T02:57:13.711Z,17.00
2017-05-29T02:59:41.956Z,17.00
2017-05-29T03:02:10.217Z,17.00
2017-05-29T03:04:38.468Z,17.00
2017-05-29T03:07:06.738Z,17.00
2017-05-29T03:09:34.988Z,17.00
2017-05-29T03:12:03.263Z,17.00
2017-05-29T03:14:31.519Z,17.00
2017-05-29T03:16:59.772Z,17.00
2017-05-29T03:19:28.054Z,16.80
2017-05-29T03:21:56.309Z,16.90
2017-05-29T03:24:24.634Z,16.90
2017-05-29T03:26:52.908Z,16.80
2017-05-29T03:29:21.180Z,16.80
2017-05-29T03:31:49.444Z,16.80
2017-05-29T03:34:17.685Z,16.80
2017-05-29T03:36:45.959Z,16.80
2017-05-29T03:39:14.203Z,16.80
2017-05-29T03:41:42.481Z,16.70
2017-05-29T03:44:10.736Z,16.70
2017-05-29T03:46:39.016Z,16.70
2017-05-29T03:49:07.280Z,16.70
2017-05-29T03:51:35.534Z,16.70
2017-05-29T03:54:03.807Z,16.80
2017-05-29T03:56:32.056Z,16.90
2017-05-29T03:59:00.326Z,16.90
2017-05-29T04:01:28.566Z,16.90
2017-05-29T04:03:56.812Z,17.00
2017-05-29T04:06:25.090Z,17.00
2017-05-29T04:08:53.344Z,17.00
2017-05-29T04:11:21.619Z,17.00
2017-05-29T04:13:49.864Z,17.10
2017-05-29T04:16:18.137Z,17.20
2017-05-29T04:18:46.389Z,17.20
2017-05-29T04:21:14.668Z,17.30
2017-05-29T04:23:42.946Z,17.40
2017-05-29T04:26:11.204Z,17.50
2017-05-29T04:28:39.468Z,17.60
2017-05-29T04:31:07.728Z,17.60
2017-05-29T04:33:35.993Z,17.60
2017-05-29T04:36:04.275Z,17.70
2017-05-29T04:38:32.536Z,17.90
2017-05-29T04:41:00.805Z,18.00
2017-05-29T04:43:34.250Z,18.00
2017-05-29T04:46:02.581Z,18.10
2017-05-29T04:48:30.946Z,18.20
2017-05-29T04:50:59.213Z,18.30
2017-05-29T04:53:27.460Z,18.50
2017-05-29T04:55:55.705Z,18.60
2017-05-29T04:58:23.976Z,18.70
2017-05-29T05:00:52.229Z,18.90
2017-05-29T05:03:20.496Z,19.10
2017-05-29T05:05:48.752Z,19.20
2017-05-29T05:08:17.013Z,19.30
2017-05-29T05:10:45.272Z,19.30
2017-05-29T05:13:13.533Z,19.30
2017-05-29T05:15:41.812Z,19.40
2017-05-29T05:18:10.163Z,19.50
2017-05-29T05:20:38.436Z,19.60
2017-05-29T05:23:06.689Z,19.60
2017-05-29T05:25:35.236Z,19.60
2017-05-29T05:28:03.667Z,19.70
2017-05-29T05:30:31.913Z,19.70
2017-05-29T05:33:00.192Z,19.90
2017-05-29T05:35:28.453Z,19.90
2017-05-29T05:37:56.728Z,20.10
2017-05-29T05:40:24.996Z,20.20
2017-05-29T05:42:53.246Z,20.20
2017-05-29T05:45:22.287Z,20.30
2017-05-29T05:47:50.952Z,20.40
2017-05-29T05:50:19.217Z,20.50
2017-05-29T05:52:47.464Z,20.60
2017-05-29T05:55:15.708Z,20.70
2017-05-29T05:57:43.981Z,20.80
2017-05-29T06:00:12.225Z,21.00
2017-05-29T06:02:40.496Z,21.10
2017-05-29T06:05:08.745Z,21.20
2017-05-29T06:07:37.017Z,21.40
2017-05-29T06:10:05.269Z,21.50
2017-05-29T06:12:33.521Z,21.70
2017-05-29T06:15:01.780Z,21.90
2017-05-29T06:17:30.030Z,22.20
2017-05-29T06:19:58.293Z,22.30
2017-05-29T06:22:26.533Z,22.50
2017-05-29T06:24:54.806Z,22.70
2017-05-29T06:27:23.075Z,22.80
2017-05-29T06:29:51.353Z,22.90
2017-05-29T06:32:19.593Z,23.10
2017-05-29T06:34:47.857Z,23.40
2017-05-29T06:37:16.105Z,23.60
2017-05-29T06:39:44.372Z,23.60
2017-05-29T06:42:12.605Z,24.00
2017-05-29T06:44:40.876Z,24.40
2017-05-29T06:47:09.128Z,24.60
2017-05-29T06:49:37.399Z,25.10
2017-05-29T06:52:05.670Z,25.70
2017-05-29T06:54:33.909Z,26.40
2017-05-29T06:57:02.168Z,27.10
2017-05-29T06:59:30.413Z,27.60
2017-05-29T07:01:58.680Z,27.90
2017-05-29T07:04:26.921Z,28.00
2017-05-29T07:06:55.160Z,28.60
2017-05-29T07:09:23.440Z,29.10
2017-05-29T07:11:51.681Z,29.30
2017-05-29T07:14:19.920Z,29.70
2017-05-29T07:16:48.221Z,29.90
2017-05-29T07:19:16.472Z,30.40
2017-05-29T07:21:44.733Z,30.60
2017-05-29T07:24:12.973Z,30.70
2017-05-29T07:26:41.236Z,31.20
2017-05-29T07:29:09.477Z,31.60
2017-05-29T07:31:37.759Z,31.60
2017-05-29T07:34:05.985Z,32.10
2017-05-29T07:36:34.225Z,32.50
2017-05-29T07:39:02.480Z,33.10
2017-05-29T07:41:30.722Z,33.90
2017-05-29T07:43:58.975Z,34.30
2017-05-29T07:46:27.213Z,34.20
2017-05-29T07:48:55.460Z,33.40
2017-05-29T07:51:23.725Z,33.50
2017-05-29T07:53:51.984Z,34.60
2017-05-29T07:56:20.212Z,35.40
2017-05-29T07:58:48.457Z,35.90
2017-05-29T08:01:16.713Z,35.60
2017-05-29T08:03:44.958Z,35.80
2017-05-29T08:06:13.213Z,36.20
2017-05-29T08:08:41.450Z,36.80
2017-05-29T08:11:09.732Z,36.80
2017-05-29T08:13:37.970Z,36.70
2017-05-29T08:16:06.238Z,37.10
2017-05-29T08:18:34.484Z,37.10
2017-05-29T08:21:02.763Z,37.30
2017-05-29T08:23:31.026Z,37.80
2017-05-29T08:25:59.261Z,38.20
2017-05-29T08:28:27.516Z,38.10
2017-05-29T08:30:55.751Z,38.30
2017-05-29T08:33:24.013Z,38.30
2017-05-29T08:35:52.250Z,38.00
2017-05-29T08:38:20.490Z,38.10
2017-05-29T08:40:48.748Z,38.40
2017-05-29T08:43:16.984Z,38.30
2017-05-29T08:45:45.245Z,38.70
2017-05-29T08:48:13.475Z,38.70
2017-05-29T08:50:41.733Z,39.20
2017-05-29T08:53:09.977Z,39.60
2017-05-29T08:55:38.299Z,39.70
2017-05-29T08:58:06.560Z,39.30
2017-05-29T09:00:34.809Z,39.90
2017-05-29T09:03:03.039Z,40.90
2017-05-29T09:05:31.305Z,40.50
2017-05-29T09:07:59.544Z,40.60
2017-05-29T09:10:27.800Z,41.10
2017-05-29T09:12:56.044Z,41.60
2017-05-29T09:15:24.313Z,41.80
2017-05-29T09:17:52.544Z,41.30
2017-05-29T09:20:20.781Z,41.70
2017-05-29T09:22:49.043Z,42.50
2017-05-29T09:25:17.284Z,41.80
2017-05-29T09:27:45.525Z,43.40
2017-05-29T09:30:13.792Z,43.90
2017-05-29T09:32:42.032Z,42.90
2017-05-29T09:35:10.265Z,43.90
2017-05-29T09:37:38.523Z,43.70
2017-05-29T09:40:06.773Z,43.00
2017-05-29T09:42:35.033Z,42.10
2017-05-29T09:45:03.269Z,42.90
2017-05-29T09:47:31.512Z,43.60
2017-05-29T09:49:59.774Z,44.60
2017-05-29T09:52:28.027Z,43.70
2017-05-29T09:54:56.284Z,42.60
2017-05-29T09:57:24.519Z,43.20
2017-05-29T09:59:52.772Z,43.60
2017-05-29T10:02:21.008Z,43.90
2017-05-29T10:04:49.276Z,43.30
2017-05-29T10:07:17.509Z,43.80
2017-05-29T10:09:45.760Z,42.20
2017-05-29T10:12:14.021Z,42.30
2017-05-29T10:14:42.260Z,42.60
2017-05-29T10:17:10.498Z,42.60
2017-05-29T10:19:38.765Z,40.50
2017-05-29T10:22:06.999Z,38.40
2017-05-29T10:24:35.249Z,36.10
2017-05-29T10:27:03.508Z,34.10
2017-05-29T10:29:31.770Z,34.70
2017-05-29T10:32:00.013Z,37.20
2017-05-29T10:34:28.258Z,39.40
2017-05-29T10:36:56.508Z,40.20
2017-05-29T10:39:24.762Z,40.50
2017-05-29T10:41:53.015Z,41.10
2017-05-29T10:44:21.250Z,40.20
2017-05-29T10:46:49.496Z,40.60
2017-05-29T10:49:17.749Z,40.10
2017-05-29T10:51:45.995Z,40.00
2017-05-29T10:54:14.261Z,39.30
2017-05-29T10:56:42.504Z,39.60
2017-05-29T10:59:10.765Z,39.20
2017-05-29T11:01:38.999Z,38.70
2017-05-29T11:04:07.252Z,37.40
2017-05-29T11:06:35.509Z,36.30
2017-05-29T11:09:03.752Z,36.10
2017-05-29T11:11:32.026Z,34.10
2017-05-29T11:14:00.266Z,34.20
2017-05-29T11:16:28.504Z,34.60
2017-05-29T11:18:56.861Z,34.90
2017-05-29T11:21:25.096Z,34.30
2017-05-29T11:23:53.376Z,34.80
2017-05-29T11:26:21.607Z,35.30
2017-05-29T11:28:49.864Z,36.00
2017-05-29T11:31:18.099Z,36.00
2017-05-29T11:33:46.349Z,35.50
2017-05-29T11:36:14.608Z,34.90
2017-05-29T11:38:42.841Z,33.90
2017-05-29T11:41:11.076Z,33.70
2017-05-29T11:43:39.340Z,33.80
2017-05-29T11:46:07.625Z,33.70
2017-05-29T11:48:35.864Z,33.80
2017-05-29T11:51:04.104Z,33.70
2017-05-29T11:53:32.372Z,32.80
2017-05-29T11:56:00.600Z,32.80
2017-05-29T11:58:28.859Z,32.60
2017-05-29T12:00:57.105Z,33.00
2017-05-29T12:03:25.352Z,33.50
2017-05-29T12:05:53.597Z,33.40
2017-05-29T12:08:21.836Z,33.90
2017-05-29T12:10:50.101Z,33.30
2017-05-29T12:13:18.354Z,33.80
2017-05-29T12:15:46.605Z,33.20
2017-05-29T12:18:14.835Z,33.60
2017-05-29T12:20:43.108Z,33.40
2017-05-29T12:23:11.360Z,33.00
2017-05-29T12:25:39.604Z,32.60
2017-05-29T12:28:07.862Z,33.30
2017-05-29T12:30:36.104Z,33.80
2017-05-29T12:33:04.472Z,34.10
2017-05-29T12:35:32.696Z,34.40
2017-05-29T12:38:00.935Z,33.80
2017-05-29T12:40:29.193Z,33.50
2017-05-29T12:42:57.428Z,33.40
2017-05-29T12:45:25.701Z,33.20
2017-05-29T12:47:54.093Z,33.10
2017-05-29T12:50:22.333Z,32.90
2017-05-29T12:52:50.572Z,32.60
2017-05-29T12:55:18.833Z,32.00
2017-05-29T12:57:47.067Z,31.60
2017-05-29T13:00:15.330Z,31.40
2017-05-29T13:02:43.598Z,31.20
2017-05-29T13:05:11.833Z,31.50
2017-05-29T13:07:40.097Z,31.60
2017-05-29T13:10:08.431Z,31.30
2017-05-29T13:12:36.681Z,31.30
2017-05-29T13:15:04.944Z,31.10
2017-05-29T13:17:33.179Z,30.80
2017-05-29T13:20:01.450Z,30.50
2017-05-29T13:22:29.698Z,30.40
2017-05-29T13:24:57.953Z,30.50
2017-05-29T13:27:26.195Z,30.80
2017-05-29T13:29:54.428Z,30.70
2017-05-29T13:32:22.681Z,30.60
2017-05-29T13:34:50.941Z,30.30
2017-05-29T13:37:19.205Z,30.60
2017-05-29T13:39:47.453Z,30.50
2017-05-29T13:42:15.747Z,30.10
2017-05-29T13:44:43.989Z,30.20
2017-05-29T13:47:12.242Z,30.50
2017-05-29T13:49:40.484Z,30.60
2017-05-29T13:52:08.738Z,30.50
2017-05-29T13:54:36.998Z,30.30
2017-05-29T13:57:05.241Z,30.40
2017-05-29T13:59:33.503Z,30.30
2017-05-29T14:02:01.739Z,30.40
2017-05-29T14:06:51.186Z,30.30
2017-05-29T14:09:19.500Z,30.40
2017-05-29T14:11:47.709Z,30.30
2017-05-29T14:14:15.952Z,30.10
2017-05-29T14:16:44.211Z,30.10
2017-05-29T14:19:12.445Z,30.20
2017-05-29T14:21:40.833Z,30.40
2017-05-29T14:24:09.069Z,30.30
2017-05-29T14:26:37.325Z,30.50
2017-05-29T14:29:05.557Z,30.60
2017-05-29T14:31:33.808Z,30.70
2017-05-29T14:34:02.066Z,30.70
2017-05-29T14:36:30.312Z,30.50
2017-05-29T14:38:58.565Z,30.10
2017-05-29T14:41:26.801Z,30.00
2017-05-29T14:43:55.047Z,30.00
2017-05-29T14:46:23.316Z,29.90
2017-05-29T14:48:51.552Z,29.80
2017-05-29T14:51:19.812Z,29.80
2017-05-29T14:53:48.058Z,29.70
2017-05-29T14:56:16.325Z,29.70
2017-05-29T14:58:44.564Z,29.70
2017-05-29T15:01:12.813Z,29.70
2017-05-29T15:03:41.065Z,29.80
2017-05-29T15:06:09.303Z,29.70
2017-05-29T15:08:37.551Z,29.70
2017-05-29T15:11:05.801Z,29.60
2017-05-29T15:13:34.068Z,29.50
2017-05-29T15:16:02.304Z,29.50
2017-05-29T15:18:30.541Z,29.40
2017-05-29T15:20:58.825Z,29.60
2017-05-29T15:23:27.074Z,29.50
2017-05-29T15:25:55.331Z,29.50
2017-05-29T15:28:23.601Z,29.60
2017-05-29T15:30:51.868Z,29.60
2017-05-29T15:33:20.108Z,29.70
2017-05-29T15:35:48.382Z,29.80
2017-05-29T15:38:16.617Z,29.90
2017-05-29T15:40:44.868Z,29.90
2017-05-29T15:43:13.137Z,29.80
2017-05-29T15:45:41.371Z,29.80
2017-05-29T15:48:09.637Z,29.80
2017-05-29T15:50:37.884Z,29.80
2017-05-29T15:53:06.127Z,29.90
2017-05-29T15:55:34.380Z,30.00
2017-05-29T15:58:02.631Z,30.00
2017-05-29T16:00:30.881Z,30.00
2017-05-29T16:02:59.120Z,30.00
2017-05-29T16:05:27.363Z,30.00
2017-05-29T16:07:55.613Z,30.00
2017-05-29T16:10:23.853Z,29.90
2017-05-29T16:12:52.121Z,30.00
2017-05-29T16:15:20.365Z,29.90
2017-05-29T16:17:48.600Z,30.00
2017-05-29T16:20:16.871Z,30.10
2017-05-29T16:22:45.123Z,30.30
2017-05-29T16:25:13.449Z,30.30
2017-05-29T16:27:41.688Z,30.30
2017-05-29T16:30:09.944Z,30.50
2017-05-29T16:32:38.181Z,30.50
2017-05-29T16:35:06.436Z,30.50
2017-05-29T16:37:34.701Z,30.40
2017-05-29T16:40:03.480Z,30.20
2017-05-29T16:42:31.719Z,30.10
2017-05-29T16:44:59.961Z,30.10
2017-05-29T16:47:28.225Z,30.10
2017-05-29T16:49:56.470Z,30.30
2017-05-29T16:52:24.716Z,30.20
2017-05-29T16:54:52.977Z,29.90
2017-05-29T16:57:21.217Z,29.80
2017-05-29T16:59:49.500Z,29.80
2017-05-29T17:02:17.749Z,29.60
2017-05-29T17:04:45.992Z,29.50
2017-05-29T17:07:14.255Z,29.50
2017-05-29T17:09:42.484Z,29.40
2017-05-29T17:12:10.749Z,29.40
2017-05-29T17:14:38.980Z,29.30
2017-05-29T17:17:07.242Z,29.20
2017-05-29T17:19:35.485Z,29.10
2017-05-29T17:22:03.833Z,28.90
2017-05-29T17:24:32.085Z,28.80
2017-05-29T17:27:00.324Z,28.70
2017-05-29T17:29:28.599Z,28.60
2017-05-29T17:31:56.844Z,28.50
2017-05-29T17:34:25.105Z,28.40
2017-05-29T17:36:53.348Z,28.30
2017-05-29T17:39:21.601Z,28.20
2017-05-29T17:41:49.845Z,28.10
2017-05-29T17:44:18.109Z,28.10
2017-05-29T17:46:46.353Z,27.90
2017-05-29T17:49:14.596Z,27.90
2017-05-29T17:51:42.856Z,27.80
2017-05-29T17:54:11.100Z,27.60
2017-05-29T17:56:39.358Z,27.50
2017-05-29T17:59:07.605Z,27.40
2017-05-29T18:01:35.873Z,27.30
2017-05-29T18:04:04.112Z,27.30
2017-05-29T18:06:32.361Z,27.20
2017-05-29T18:09:00.619Z,27.10
2017-05-29T18:11:28.973Z,27.00
2017-05-29T18:13:57.220Z,27.00
2017-05-29T18:16:25.460Z,26.90
2017-05-29T18:18:53.729Z,26.80
2017-05-29T18:21:21.964Z,26.70
2017-05-29T18:23:50.229Z,26.60
2017-05-29T18:26:18.484Z,26.50
2017-05-29T18:28:46.749Z,26.40
2017-05-29T18:31:15.019Z,26.30
2017-05-29T18:33:43.263Z,26.20
2017-05-29T18:36:11.524Z,26.10
2017-05-29T18:38:39.756Z,26.00
2017-05-29T18:41:07.997Z,26.00
2017-05-29T18:43:36.257Z,25.90
2017-05-29T18:46:04.500Z,25.80
2017-05-29T18:48:32.768Z,25.70
2017-05-29T18:51:01.009Z,25.70
2017-05-29T18:53:29.248Z,25.60
2017-05-29T18:55:57.508Z,25.50
2017-05-29T18:58:25.760Z,25.50
2017-05-29T19:00:54.017Z,25.40
2017-05-29T19:03:22.252Z,25.40
2017-05-29T19:05:50.520Z,25.30
2017-05-29T19:08:18.846Z,25.20
2017-05-29T19:10:47.080Z,25.10
2017-05-29T19:13:15.340Z,25.10
2017-05-29T19:15:43.589Z,24.90
2017-05-29T19:18:11.863Z,24.90
2017-05-29T19:20:40.108Z,24.80
2017-05-29T19:23:08.368Z,24.80
2017-05-29T19:25:36.649Z,24.70
2017-05-29T19:28:04.903Z,24.60
2017-05-29T19:30:33.172Z,24.50
2017-05-29T19:33:01.421Z,24.40
2017-05-29T19:35:29.668Z,24.40
2017-05-29T19:37:57.929Z,24.20
2017-05-29T19:40:26.211Z,24.20
2017-05-29T19:42:54.512Z,24.10
2017-05-29T19:45:22.762Z,24.10
2017-05-29T19:47:51.019Z,24.00
2017-05-29T19:50:19.268Z,24.00
2017-05-29T19:52:47.520Z,24.00
2017-05-29T19:55:15.788Z,23.90
2017-05-29T19:57:44.040Z,24.00
2017-05-29T20:00:12.313Z,23.80
2017-05-29T20:02:40.566Z,23.70
2017-05-29T20:05:08.822Z,23.70
2017-05-29T20:07:37.088Z,23.60
2017-05-29T20:10:05.368Z,23.60
2017-05-29T20:12:33.645Z,23.50
2017-05-29T20:15:01.893Z,23.40
2017-05-29T20:17:30.159Z,23.40
2017-05-29T20:19:58.423Z,23.40
2017-05-29T20:22:27.829Z,23.50
2017-05-29T20:24:56.078Z,23.50
2017-05-29T20:27:24.344Z,23.50
2017-05-29T20:29:52.608Z,23.50
2017-05-29T20:32:20.864Z,23.40
2017-05-29T20:34:49.129Z,23.30
2017-05-29T20:37:17.396Z,23.30
2017-05-29T20:39:45.680Z,23.30
2017-05-29T20:42:13.953Z,23.20
2017-05-29T20:44:42.226Z,23.20
2017-05-29T20:47:10.469Z,23.20
2017-05-29T20:49:38.737Z,23.20
2017-05-29T20:52:06.981Z,23.20
2017-05-29T20:54:35.228Z,23.10
2017-05-29T20:57:03.496Z,23.00
2017-05-29T20:59:31.744Z,23.00
2017-05-29T21:02:00.004Z,23.10
2017-05-29T21:04:28.244Z,23.10
2017-05-29T21:06:56.512Z,23.10
2017-05-29T21:09:24.760Z,22.90
2017-05-29T21:11:53.014Z,23.00
2017-05-29T21:14:21.292Z,23.00
2017-05-29T21:16:49.530Z,22.90
2017-05-29T21:19:17.825Z,22.90
2017-05-29T21:21:46.073Z,22.80
2017-05-29T21:24:14.341Z,22.90
2017-05-29T21:26:42.583Z,22.90
2017-05-29T21:29:10.882Z,22.80
2017-05-29T21:31:39.144Z,22.80
2017-05-29T21:34:07.402Z,22.80
2017-05-29T21:36:35.657Z,22.70
2017-05-29T21:39:03.942Z,22.70
2017-05-29T21:41:32.200Z,22.70
2017-05-29T21:44:00.448Z,22.60
2017-05-29T21:46:30.165Z,22.60
2017-05-29T21:48:58.443Z,22.60
2017-05-29T21:51:26.728Z,22.70
2017-05-29T21:53:54.977Z,22.60
2017-05-29T21:56:23.263Z,22.60
2017-05-29T21:58:51.533Z,22.60
2017-05-29T22:01:19.780Z,22.50
2017-05-29T22:03:48.048Z,22.50
2017-05-29T22:06:16.308Z,22.50
2017-05-29T22:08:44.588Z,22.50
2017-05-29T22:11:12.856Z,22.50
2017-05-29T22:13:41.125Z,22.40
2017-05-29T22:16:09.496Z,22.40
2017-05-29T22:18:37.740Z,22.50
2017-05-29T22:21:06.005Z,22.40
2017-05-29T22:23:34.244Z,22.40
2017-05-29T22:26:02.532Z,22.40
2017-05-29T22:28:30.782Z,22.50
2017-05-29T22:30:59.051Z,22.50
2017-05-29T22:33:27.338Z,22.40
2017-05-29T22:35:55.591Z,22.20
2017-05-29T22:38:23.861Z,21.90
2017-05-29T22:40:52.115Z,21.50
2017-05-29T22:43:20.376Z,21.10
2017-05-29T22:45:48.629Z,20.90
2017-05-29T22:48:16.904Z,20.70
2017-05-29T22:50:45.145Z,20.40
2017-05-29T22:53:13.496Z,20.40
2017-05-29T22:55:41.765Z,20.40
2017-05-29T22:58:10.022Z,20.40
2017-05-29T23:00:38.296Z,20.40
2017-05-29T23:03:06.545Z,20.50
2017-05-29T23:05:34.793Z,20.50
2017-05-29T23:08:03.064Z,20.40
2017-05-29T23:10:31.309Z,20.70
2017-05-29T23:12:59.564Z,20.80
2017-05-29T23:15:27.817Z,20.50
2017-05-29T23:17:56.073Z,20.20
2017-05-29T23:20:24.321Z,20.00
2017-05-29T23:22:52.592Z,19.70
2017-05-29T23:25:20.836Z,19.70
2017-05-29T23:27:49.101Z,19.70
2017-05-29T23:30:17.347Z,19.60
2017-05-29T23:32:45.602Z,19.60
2017-05-29T23:35:15.383Z,19.50
2017-05-29T23:37:43.759Z,19.60
2017-05-29T23:40:12.028Z,19.60
2017-05-29T23:42:40.276Z,19.50
2017-05-29T23:45:08.519Z,19.40
2017-05-29T23:47:36.780Z,19.60
2017-05-29T23:50:05.025Z,19.60
2017-05-29T23:52:33.280Z,19.50
2017-05-29T23:55:01.553Z,19.50
2017-05-29T23:57:29.805Z,19.50
2017-05-29T23:59:58.078Z,19.10
